createdAt,value
2019-01-24T00:00:13.174Z,85.26
2019-01-24T00:05:09.064Z,83.50
2019-01-24T00:10:08.574Z,84.11
2019-01-24T00:15:07.472Z,84.43
2019-01-24T00:20:06.971Z,83.73
2019-01-24T00:25:05.565Z,84.76
2019-01-24T00:30:10.632Z,84.98
2019-01-24T00:35:08.226Z,84.78
2019-01-24T00:40:07.935Z,85.49
2019-01-24T00:45:06.330Z,85.88
2019-01-24T00:50:05.225Z,84.84
2019-01-24T00:55:01.119Z,85.45
2019-01-24T01:00:02.218Z,85.91
2019-01-24T01:04:58.211Z,85.36
2019-01-24T01:09:54.113Z,85.85
2019-01-24T01:14:50.004Z,86.92
2019-01-24T01:19:45.903Z,86.98
2019-01-24T01:24:41.794Z,86.17
2019-01-24T01:29:37.694Z,86.74
2019-01-24T01:34:36.329Z,87.59
2019-01-24T01:39:31.377Z,88.28
2019-01-24T01:44:27.260Z,87.21
2019-01-24T01:49:23.260Z,86.40
2019-01-24T01:54:19.157Z,86.56
2019-01-24T01:59:15.048Z,86.41
2019-01-24T02:04:10.961Z,87.17
2019-01-24T02:09:07.352Z,87.17
2019-01-24T02:14:03.947Z,86.75
2019-01-24T02:18:59.844Z,87.24
2019-01-24T02:23:55.738Z,86.58
2019-01-24T02:28:51.737Z,86.52
2019-01-24T02:33:47.630Z,86.52
2019-01-24T02:38:43.533Z,87.19
2019-01-24T02:43:39.426Z,87.15
2019-01-24T02:48:35.436Z,86.51
2019-01-24T02:53:31.302Z,87.21
2019-01-24T02:58:27.203Z,87.49
2019-01-24T03:03:23.090Z,87.91
2019-01-24T03:08:19.242Z,87.79
2019-01-24T03:13:15.859Z,86.41
2019-01-24T03:18:12.281Z,84.73
2019-01-24T03:23:08.799Z,84.37
2019-01-24T03:28:05.436Z,83.23
2019-01-24T03:33:01.294Z,82.21
2019-01-24T03:37:57.200Z,82.05
2019-01-24T03:42:53.191Z,81.71
2019-01-24T03:47:49.090Z,81.77
2019-01-24T03:52:45.593Z,81.12
2019-01-24T03:57:41.589Z,81.14
2019-01-24T04:02:37.505Z,80.96
2019-01-24T04:07:33.426Z,80.96
2019-01-24T04:12:29.345Z,81.14
2019-01-24T04:17:25.244Z,81.29
2019-01-24T04:22:21.148Z,80.80
2019-01-24T04:27:17.041Z,80.80
2019-01-24T04:32:12.950Z,80.21
2019-01-24T04:37:08.839Z,79.60
2019-01-24T04:42:04.725Z,79.72
2019-01-24T04:47:00.618Z,79.22
2019-01-24T04:51:56.506Z,79.15
2019-01-24T04:56:52.398Z,79.39
2019-01-24T05:01:48.298Z,79.11
2019-01-24T05:06:44.231Z,78.80
2019-01-24T05:11:40.121Z,78.79
2019-01-24T05:16:36.013Z,78.90
2019-01-24T05:21:31.909Z,79.05
2019-01-24T05:26:27.797Z,79.61
2019-01-24T05:31:23.692Z,79.22
2019-01-24T05:36:19.590Z,79.64
2019-01-24T05:41:15.486Z,79.61
2019-01-24T05:46:11.390Z,79.42
2019-01-24T05:51:07.274Z,79.10
2019-01-24T05:56:03.367Z,79.03
2019-01-24T06:01:00.277Z,78.47
2019-01-24T06:05:56.136Z,78.58
2019-01-24T06:10:52.086Z,78.04
2019-01-24T06:15:47.975Z,78.39
2019-01-24T06:20:43.867Z,78.79
2019-01-24T06:25:39.772Z,78.26
2019-01-24T06:30:36.236Z,78.27
2019-01-24T06:35:32.098Z,78.04
2019-01-24T06:40:28.181Z,78.39
2019-01-24T06:45:24.182Z,78.12
2019-01-24T06:50:20.073Z,78.44
2019-01-24T06:55:19.270Z,77.90
2019-01-24T07:00:17.743Z,77.71
2019-01-24T07:05:13.832Z,77.65
2019-01-24T07:10:12.430Z,78.12
2019-01-24T07:15:13.529Z,77.93
2019-01-24T07:20:11.822Z,77.94
2019-01-24T07:25:11.582Z,77.26
2019-01-24T07:30:13.133Z,77.73
2019-01-24T07:35:11.329Z,77.69
2019-01-24T07:40:10.427Z,77.47
2019-01-24T07:45:10.123Z,77.89
2019-01-24T07:50:09.421Z,77.67
2019-01-24T07:55:10.879Z,77.07
2019-01-24T08:00:12.517Z,76.91
2019-01-24T08:05:10.417Z,77.17
2019-01-24T08:10:11.711Z,77.71
2019-01-24T08:15:10.306Z,77.09
2019-01-24T08:20:14.714Z,77.58
2019-01-24T08:25:11.828Z,77.09
2019-01-24T08:30:18.162Z,77.76
2019-01-24T08:35:14.153Z,77.04
2019-01-24T08:40:12.949Z,76.21
2019-01-24T08:45:13.602Z,76.24
2019-01-24T08:50:38.036Z,75.69
2019-01-24T08:55:37.645Z,75.58
2019-01-24T09:00:34.502Z,75.46
2019-01-24T09:05:30.382Z,75.73
2019-01-24T09:10:32.375Z,76.00
2019-01-24T09:15:29.302Z,76.29
2019-01-24T09:20:25.473Z,75.72
2019-01-24T09:25:24.318Z,75.49
2019-01-24T09:30:27.494Z,75.62
2019-01-24T09:35:23.491Z,75.27
2019-01-24T09:40:20.479Z,74.55
2019-01-24T09:45:20.183Z,74.07
2019-01-24T09:50:20.711Z,74.03
2019-01-24T09:55:16.706Z,73.62
2019-01-24T10:00:22.775Z,74.83
2019-01-24T10:05:18.876Z,74.37
2019-01-24T10:10:20.714Z,74.61
2019-01-24T10:15:17.805Z,74.26
2019-01-24T10:20:18.790Z,74.63
2019-01-24T10:25:39.457Z,73.69
2019-01-24T10:30:42.800Z,74.81
2019-01-24T10:35:35.408Z,74.49
2019-01-24T10:40:31.898Z,75.09
2019-01-24T10:45:29.021Z,75.46
2019-01-24T10:50:26.630Z,75.90
2019-01-24T10:55:24.430Z,74.67
2019-01-24T11:00:25.258Z,74.73
2019-01-24T11:05:21.281Z,75.47
2019-01-24T11:10:19.076Z,74.55
2019-01-24T11:15:24.319Z,72.60
2019-01-24T11:20:20.404Z,72.79
2019-01-24T11:25:21.282Z,73.08
2019-01-24T11:30:23.249Z,72.82
2019-01-24T11:35:21.551Z,71.85
2019-01-24T11:40:18.154Z,71.54
2019-01-24T11:45:16.545Z,71.55
2019-01-24T11:50:17.092Z,72.25
2019-01-24T11:55:20.188Z,71.93
2019-01-24T12:00:23.159Z,72.25
2019-01-24T12:05:19.219Z,71.46
2019-01-24T12:10:23.508Z,72.03
2019-01-24T12:15:21.740Z,72.42
2019-01-24T12:20:19.739Z,72.08
2019-01-24T12:25:15.642Z,70.19
2019-01-24T12:30:18.999Z,70.56
2019-01-24T12:35:15.102Z,71.17
2019-01-24T12:40:16.274Z,71.50
2019-01-24T12:45:28.732Z,70.88
2019-01-24T12:50:24.825Z,70.90
2019-01-24T12:55:20.818Z,71.53
2019-01-24T13:00:21.605Z,71.62
2019-01-24T13:05:17.705Z,70.21
2019-01-24T13:10:16.025Z,72.33
2019-01-24T13:15:14.926Z,74.67
2019-01-24T13:20:13.471Z,73.11
2019-01-24T13:25:15.570Z,73.06
2019-01-24T13:30:17.577Z,74.01
2019-01-24T13:35:13.630Z,75.25
2019-01-24T13:40:13.711Z,75.20
2019-01-24T13:45:14.370Z,74.54
2019-01-24T13:50:16.024Z,74.51
2019-01-24T13:55:16.175Z,74.75
2019-01-24T14:00:23.314Z,72.75
2019-01-24T14:05:19.410Z,72.03
2019-01-24T14:10:16.538Z,72.68
2019-01-24T14:15:15.252Z,72.90
2019-01-24T14:20:15.062Z,73.04
2019-01-24T14:25:13.758Z,73.99
2019-01-24T14:30:13.469Z,73.77
2019-01-24T14:35:09.516Z,75.39
2019-01-24T14:40:09.190Z,74.38
2019-01-24T14:45:12.023Z,75.55
2019-01-24T14:50:17.005Z,76.78
2019-01-24T14:55:13.320Z,75.49
2019-01-24T15:00:28.199Z,75.98
2019-01-24T15:05:24.186Z,74.74
2019-01-24T15:10:22.168Z,74.33
2019-01-24T15:15:21.847Z,74.66
2019-01-24T15:20:19.855Z,74.24
2019-01-24T15:25:17.351Z,73.98
2019-01-24T15:30:17.649Z,74.75
2019-01-24T15:35:15.494Z,74.43
2019-01-24T15:40:16.541Z,72.90
2019-01-24T15:45:15.747Z,75.27
2019-01-24T15:50:15.530Z,75.70
2019-01-24T15:55:11.935Z,75.03
2019-01-24T16:00:20.156Z,75.33
2019-01-24T16:05:16.143Z,76.50
2019-01-24T16:10:14.656Z,76.31
2019-01-24T16:15:19.278Z,75.57
2019-01-24T16:20:17.711Z,75.53
2019-01-24T16:25:15.984Z,76.41
2019-01-24T16:30:21.364Z,76.71
2019-01-24T16:35:18.470Z,75.83
2019-01-24T16:40:22.603Z,75.82
2019-01-24T16:45:20.618Z,75.23
2019-01-24T16:50:18.821Z,75.91
2019-01-24T16:55:16.119Z,77.07
2019-01-24T17:00:18.598Z,75.10
2019-01-24T17:05:14.741Z,75.84
2019-01-24T17:10:20.522Z,75.32
2019-01-24T17:15:17.617Z,75.28
2019-01-24T17:20:16.570Z,74.29
2019-01-24T17:25:12.790Z,75.36
2019-01-24T17:30:15.264Z,75.64
2019-01-24T17:35:11.263Z,75.18
2019-01-24T17:40:10.962Z,75.61
2019-01-24T17:45:10.359Z,75.88
2019-01-24T17:50:09.474Z,75.34
2019-01-24T17:55:09.257Z,74.73
2019-01-24T18:00:12.584Z,74.93
2019-01-24T18:05:08.588Z,75.13
2019-01-24T18:10:22.778Z,75.29
2019-01-24T18:15:21.792Z,75.22
2019-01-24T18:20:20.647Z,75.46
2019-01-24T18:25:16.634Z,75.60
2019-01-24T18:30:26.919Z,75.84
2019-01-24T18:35:22.918Z,76.32
2019-01-24T18:40:25.654Z,76.81
2019-01-24T18:45:25.312Z,76.32
2019-01-24T18:50:21.298Z,77.00
2019-01-24T18:55:17.204Z,76.81
2019-01-24T19:00:17.197Z,78.14
2019-01-24T19:05:13.290Z,78.13
2019-01-24T19:10:12.932Z,77.18
2019-01-24T19:15:12.575Z,77.75
2019-01-24T19:20:10.790Z,76.05
2019-01-24T19:25:13.368Z,76.45
2019-01-24T19:30:21.479Z,75.95
2019-01-24T19:35:17.479Z,77.20
2019-01-24T19:40:19.185Z,77.34
2019-01-24T19:45:39.801Z,77.97
2019-01-24T19:50:35.805Z,77.95
2019-01-24T19:55:31.707Z,77.61
2019-01-24T20:00:33.443Z,77.63
2019-01-24T20:05:29.506Z,77.38
2019-01-24T20:10:27.300Z,77.77
2019-01-24T20:15:30.489Z,78.28
2019-01-24T20:20:26.882Z,78.01
2019-01-24T20:25:26.087Z,78.13
2019-01-24T20:30:27.276Z,78.34
2019-01-24T20:35:29.476Z,77.53
2019-01-24T20:40:25.570Z,77.46
2019-01-24T20:45:21.467Z,76.91
2019-01-24T20:50:17.363Z,77.65
2019-01-24T20:55:14.665Z,76.87
2019-01-24T21:00:16.478Z,77.96
2019-01-24T21:05:40.306Z,76.92
2019-01-24T21:10:36.205Z,77.23
2019-01-24T21:15:32.206Z,76.90
2019-01-24T21:20:30.218Z,78.32
2019-01-24T21:25:26.314Z,78.32
2019-01-24T21:30:38.980Z,78.21
2019-01-24T21:35:34.973Z,77.75
2019-01-24T21:40:31.725Z,77.72
2019-01-24T21:45:35.943Z,78.65
2019-01-24T21:50:31.914Z,79.03
2019-01-24T21:55:28.411Z,79.18
2019-01-24T22:00:26.405Z,79.24
2019-01-24T22:05:22.695Z,78.56
2019-01-24T22:10:26.706Z,77.38
2019-01-24T22:15:24.805Z,78.04
2019-01-24T22:20:20.706Z,78.12
2019-01-24T22:25:23.053Z,76.77
2019-01-24T22:30:26.474Z,77.25
2019-01-24T22:35:22.370Z,76.52
2019-01-24T22:40:18.568Z,76.66
2019-01-24T22:45:17.676Z,77.78
2019-01-24T22:50:14.564Z,77.20
2019-01-24T22:55:11.553Z,78.42
2019-01-24T23:00:54.708Z,77.97
2019-01-24T23:05:50.602Z,75.73
2019-01-24T23:10:46.529Z,76.36
2019-01-24T23:15:42.526Z,76.83
2019-01-24T23:20:38.429Z,77.52
2019-01-24T23:25:34.434Z,77.57
2019-01-24T23:30:30.334Z,77.57
2019-01-24T23:35:26.335Z,76.05
2019-01-24T23:40:22.207Z,77.19
2019-01-24T23:45:18.139Z,76.05
2019-01-24T23:50:14.089Z,76.62
2019-01-24T23:55:09.982Z,75.42
